RKSO/OSN METAR and TAF weather

Enter ICAO airport designator
Station Type Date Time Source
RKSO METAR 2018/12/12 10:58 UTC NOAA

RKSO 121058Z 00000KT 7SM CLR M03/M10 A3041 RMK AO2A SLP302 T10311097 $


Station Type Date Time Source
RKSO Decoded METAR 2018/12/12 10:58 UTC NOAA

Osan Ab, Korea, South (RKSO) 37-06N 127-02E 12M
Dec 12, 2018 - 05:58 AM EST / 2018.12.12 1058 UTC
Wind: Calm:0
Visibility: 7 mile(s):0
Sky conditions: clear
Temperature: 26.4 F (-3.1 C)
Dew Point: 14.5 F (-9.7 C)
Relative Humidity: 60%
Pressure (altimeter): 30.41 in. Hg (1029 hPa)
ob: RKSO 121058Z 00000KT 7SM CLR M03/M10 A3041 RMK AO2A SLP302 T10311097
cycle: 11

Station Type Date Time Source
RKSO TAF 2018/12/12 11:09 UTC NOAA

TAF TAF RKSO 121100Z 1211/1317 VRB06KT 9999 SKC QNH3040INS
BECMG 1216/1217 VRB06KT 9999 OVC030 620304 QNH3040INS
BECMG 1221/1222 VRB06KT 6000 -SN OVC020 620205 QNH3038INS
BECMG 1301/1302 20012G18KT 8000 -SN OVC020 620204 QNH3039INS
BECMG 1309/1310 32009KT 9999 NSW SCT030 QNH3040INS TX02/1305Z TNM04/1221Z


Example: see airport list